sensor_id;sensor_type;location;lat;lon;timestamp;pressure;altitude;pressure_sealevel;temperature;humidity
42247;BME280;27913;42.722;23.268;2023-04-07T00:03:40;94735.22;;;1.53;62.05
42247;BME280;27913;42.722;23.268;2023-04-07T00:06:06;94746.00;;;1.58;61.68
42247;BME280;27913;42.722;23.268;2023-04-07T00:08:31;94734.50;;;1.61;61.87
42247;BME280;27913;42.722;23.268;2023-04-07T00:10:57;94676.97;;;1.17;62.00
42247;BME280;27913;42.722;23.268;2023-04-07T00:13:23;94678.59;;;1.28;61.79
42247;BME280;27913;42.722;23.268;2023-04-07T00:15:48;94732.88;;;1.60;61.86
42247;BME280;27913;42.722;23.268;2023-04-07T00:18:14;94733.53;;;1.62;61.81
42247;BME280;27913;42.722;23.268;2023-04-07T00:20:39;94739.69;;;1.61;62.00
42247;BME280;27913;42.722;23.268;2023-04-07T00:23:05;94654.50;;;0.98;62.13
42247;BME280;27913;42.722;23.268;2023-04-07T00:25:30;94718.56;;;1.46;62.05
42247;BME280;27913;42.722;23.268;2023-04-07T00:27:55;94734.09;;;1.55;62.10
42247;BME280;27913;42.722;23.268;2023-04-07T00:30:21;94745.44;;;1.54;62.14
42247;BME280;27913;42.722;23.268;2023-04-07T00:32:46;94740.91;;;1.56;61.96
42247;BME280;27913;42.722;23.268;2023-04-07T00:35:12;94674.53;;;1.16;62.06
42247;BME280;27913;42.722;23.268;2023-04-07T00:37:37;94740.53;;;1.61;61.84
42247;BME280;27913;42.722;23.268;2023-04-07T00:40:04;94729.75;;;1.56;61.56
42247;BME280;27913;42.722;23.268;2023-04-07T00:42:30;94731.09;;;1.50;61.95
42247;BME280;27913;42.722;23.268;2023-04-07T00:44:57;94738.88;;;1.50;61.68
42247;BME280;27913;42.722;23.268;2023-04-07T00:47:22;94744.63;;;1.54;61.32
42247;BME280;27913;42.722;23.268;2023-04-07T00:49:48;94731.66;;;1.54;61.11
42247;BME280;27913;42.722;23.268;2023-04-07T00:52:14;94739.44;;;1.54;60.93
42247;BME280;27913;42.722;23.268;2023-04-07T00:54:41;94730.53;;;1.56;60.74
42247;BME280;27913;42.722;23.268;2023-04-07T00:57:07;94587.69;;;0.62;60.68
42247;BME280;27913;42.722;23.268;2023-04-07T00:59:33;94728.09;;;1.55;60.05
42247;BME280;27913;42.722;23.268;2023-04-07T01:02:22;94727.28;;;1.64;60.07
42247;BME280;27913;42.722;23.268;2023-04-07T01:08:11;94657.75;;;1.20;59.35
42247;BME280;27913;42.722;23.268;2023-04-07T01:13:39;94720.72;;;1.70;58.83
42247;BME280;27913;42.722;23.268;2023-04-07T01:16:10;94723.72;;;1.75;58.62
42247;BME280;27913;42.722;23.268;2023-04-07T01:18:38;94719.47;;;1.74;58.52
42247;BME280;27913;42.722;23.268;2023-04-07T01:21:13;94713.22;;;1.77;58.46
42247;BME280;27913;42.722;23.268;2023-04-07T01:23:48;94650.09;;;1.38;58.35
42247;BME280;27913;42.722;23.268;2023-04-07T01:26:19;94721.38;;;1.82;58.67
42247;BME280;27913;42.722;23.268;2023-04-07T01:31:25;94703.25;;;1.62;58.51
42247;BME280;27913;42.722;23.268;2023-04-07T01:33:54;94660.75;;;1.35;57.25
42247;BME280;27913;42.722;23.268;2023-04-07T01:36:22;94726.59;;;1.72;59.15
42247;BME280;27913;42.722;23.268;2023-04-07T01:38:49;94649.97;;;1.20;63.56
42247;BME280;27913;42.722;23.268;2023-04-07T01:41:16;94654.22;;;1.01;67.54
42247;BME280;27913;42.722;23.268;2023-04-07T01:43:44;94720.31;;;1.25;69.27
42247;BME280;27913;42.722;23.268;2023-04-07T01:46:11;94719.22;;;0.98;71.63
42247;BME280;27913;42.722;23.268;2023-04-07T01:48:36;94717.84;;;0.94;71.99
42247;BME280;27913;42.722;23.268;2023-04-07T01:51:04;94675.41;;;0.65;72.20
42247;BME280;27913;42.722;23.268;2023-04-07T01:53:31;94709.66;;;0.79;72.90
42247;BME280;27913;42.722;23.268;2023-04-07T01:55:57;94628.44;;;0.09;74.05
42247;BME280;27913;42.722;23.268;2023-04-07T01:58:22;94672.47;;;0.29;75.02
42247;BME280;27913;42.722;23.268;2023-04-07T02:00:48;94679.88;;;0.33;74.74
42247;BME280;27913;42.722;23.268;2023-04-07T02:06:22;94580.47;;;-0.15;72.75
42247;BME280;27913;42.722;23.268;2023-04-07T02:08:53;94585.28;;;-0.01;72.97
42247;BME280;27913;42.722;23.268;2023-04-07T02:11:23;94631.09;;;0.29;73.35
42247;BME280;27913;42.722;23.268;2023-04-07T02:13:52;94692.34;;;0.79;72.88
42247;BME280;27913;42.722;23.268;2023-04-07T02:16:19;94696.44;;;0.82;72.25
42247;BME280;27913;42.722;23.268;2023-04-07T02:18:45;94709.66;;;0.79;73.97
42247;BME280;27913;42.722;23.268;2023-04-07T02:21:13;94641.84;;;0.34;73.78
42247;BME280;27913;42.722;23.268;2023-04-07T02:23:39;94709.34;;;0.62;74.85
42247;BME280;27913;42.722;23.268;2023-04-07T02:26:05;94711.22;;;0.50;76.28
42247;BME280;27913;42.722;23.268;2023-04-07T02:28:30;94697.75;;;0.56;75.91
42247;BME280;27913;42.722;23.268;2023-04-07T02:30:56;94602.00;;;-0.05;76.18
42247;BME280;27913;42.722;23.268;2023-04-07T02:33:22;94649.63;;;0.34;75.61
42247;BME280;27913;42.722;23.268;2023-04-07T02:35:47;94710.53;;;0.48;75.81
42247;BME280;27913;42.722;23.268;2023-04-07T02:38:12;94634.97;;;0.03;76.43
42247;BME280;27913;42.722;23.268;2023-04-07T02:40:38;94701.28;;;0.55;76.35
42247;BME280;27913;42.722;23.268;2023-04-07T02:43:04;94614.28;;;0.03;76.38
42247;BME280;27913;42.722;23.268;2023-04-07T02:45:30;94705.00;;;0.63;76.46
42247;BME280;27913;42.722;23.268;2023-04-07T02:47:55;94619.31;;;0.05;76.49
42247;BME280;27913;42.722;23.268;2023-04-07T02:50:21;94638.47;;;0.33;76.51
42247;BME280;27913;42.722;23.268;2023-04-07T02:52:46;94707.63;;;0.82;76.23
42247;BME280;27913;42.722;23.268;2023-04-07T02:55:12;94707.22;;;0.87;75.84
42247;BME280;27913;42.722;23.268;2023-04-07T02:57:37;94700.00;;;0.91;75.46
42247;BME280;27913;42.722;23.268;2023-04-07T03:00:03;94647.31;;;0.41;75.47
42247;BME280;27913;42.722;23.268;2023-04-07T03:02:29;94524.50;;;-0.36;75.66
42247;BME280;27913;42.722;23.268;2023-04-07T03:04:54;94669.69;;;0.52;74.67
42247;BME280;27913;42.722;23.268;2023-04-07T03:07:20;94601.38;;;0.23;74.67
42247;BME280;27913;42.722;23.268;2023-04-07T03:09:45;94670.00;;;0.68;74.72
42247;BME280;27913;42.722;23.268;2023-04-07T03:12:11;94697.41;;;1.01;74.57
42247;BME280;27913;42.722;23.268;2023-04-07T03:14:37;94712.94;;;1.01;70.96
42247;BME280;27913;42.722;23.268;2023-04-07T03:17:03;94476.78;;;-0.32;67.51
42247;BME280;27913;42.722;23.268;2023-04-07T03:19:29;94717.06;;;1.23;63.86
42247;BME280;27913;42.722;23.268;2023-04-07T03:21:54;94706.16;;;1.39;61.48
42247;BME280;27913;42.722;23.268;2023-04-07T03:24:20;94715.69;;;1.49;60.10
42247;BME280;27913;42.722;23.268;2023-04-07T03:26:46;94633.19;;;1.14;59.62
42247;BME280;27913;42.722;23.268;2023-04-07T03:29:11;94644.00;;;1.19;58.83
42247;BME280;27913;42.722;23.268;2023-04-07T03:31:37;94703.38;;;1.71;58.35
42247;BME280;27913;42.722;23.268;2023-04-07T03:34:03;94649.97;;;1.30;58.17
42247;BME280;27913;42.722;23.268;2023-04-07T03:36:29;94711.16;;;1.80;57.85
42247;BME280;27913;42.722;23.268;2023-04-07T03:38:56;94713.47;;;1.84;57.53
42247;BME280;27913;42.722;23.268;2023-04-07T03:41:21;94658.00;;;1.47;57.96
42247;BME280;27913;42.722;23.268;2023-04-07T03:43:47;94721.75;;;1.97;57.44
42247;BME280;27913;42.722;23.268;2023-04-07T03:46:12;94498.06;;;0.61;57.23
42247;BME280;27913;42.722;23.268;2023-04-07T03:48:38;94652.53;;;1.50;57.30
42247;BME280;27913;42.722;23.268;2023-04-07T03:51:05;94729.97;;;1.92;57.42
42247;BME280;27913;42.722;23.268;2023-04-07T03:53:31;94603.19;;;1.22;57.30
42247;BME280;27913;42.722;23.268;2023-04-07T03:55:57;94655.25;;;1.58;57.30
42247;BME280;27913;42.722;23.268;2023-04-07T03:58:22;94723.66;;;1.95;57.38
42247;BME280;27913;42.722;23.268;2023-04-07T04:00:48;94584.81;;;1.15;57.46
42247;BME280;27913;42.722;23.268;2023-04-07T04:03:13;94714.38;;;2.02;57.21
42247;BME280;27913;42.722;23.268;2023-04-07T04:05:39;94726.25;;;2.05;57.60
42247;BME280;27913;42.722;23.268;2023-04-07T04:08:05;94678.03;;;1.64;57.71
42247;BME280;27913;42.722;23.268;2023-04-07T04:10:31;94697.81;;;1.55;67.64
42247;BME280;27913;42.722;23.268;2023-04-07T04:12:56;94736.84;;;1.44;70.90
42247;BME280;27913;42.722;23.268;2023-04-07T04:15:25;94563.69;;;0.10;72.77
42247;BME280;27913;42.722;23.268;2023-04-07T04:17:51;94682.16;;;0.88;73.05
42247;BME280;27913;42.722;23.268;2023-04-07T04:20:16;94688.69;;;0.82;73.33
42247;BME280;27913;42.722;23.268;2023-04-07T04:22:42;94663.44;;;0.64;74.27
42247;BME280;27913;42.722;23.268;2023-04-07T04:25:08;94681.00;;;0.70;74.08
42247;BME280;27913;42.722;23.268;2023-04-07T04:27:33;94680.88;;;0.62;74.57
42247;BME280;27913;42.722;23.268;2023-04-07T04:29:59;94725.75;;;0.92;75.43
42247;BME280;27913;42.722;23.268;2023-04-07T04:32:24;94751.22;;;0.77;76.79
42247;BME280;27913;42.722;23.268;2023-04-07T04:34:49;94678.47;;;0.29;77.03
42247;BME280;27913;42.722;23.268;2023-04-07T04:37:15;94750.91;;;0.70;77.52
42247;BME280;27913;42.722;23.268;2023-04-07T04:39:40;94752.84;;;0.68;77.70
42247;BME280;27913;42.722;23.268;2023-04-07T04:42:06;94755.97;;;0.72;77.56
42247;BME280;27913;42.722;23.268;2023-04-07T04:44:31;94534.41;;;-0.73;77.89
42247;BME280;27913;42.722;23.268;2023-04-07T04:46:57;94759.47;;;0.61;78.33
42247;BME280;27913;42.722;23.268;2023-04-07T04:49:22;94707.91;;;0.38;78.54
42247;BME280;27913;42.722;23.268;2023-04-07T04:51:48;94693.56;;;0.24;78.79
42247;BME280;27913;42.722;23.268;2023-04-07T04:54:13;94768.19;;;0.60;79.36
42247;BME280;27913;42.722;23.268;2023-04-07T04:56:39;94763.69;;;0.62;79.48
42247;BME280;27913;42.722;23.268;2023-04-07T04:59:04;94766.28;;;0.62;81.62
42247;BME280;27913;42.722;23.268;2023-04-07T05:01:30;94662.75;;;0.11;80.82
42247;BME280;27913;42.722;23.268;2023-04-07T05:03:56;94773.56;;;0.88;79.48
42247;BME280;27913;42.722;23.268;2023-04-07T05:06:22;94717.91;;;0.53;79.23
42247;BME280;27913;42.722;23.268;2023-04-07T05:08:47;94779.03;;;0.85;79.55
42247;BME280;27913;42.722;23.268;2023-04-07T05:11:13;94713.25;;;0.46;78.86
42247;BME280;27913;42.722;23.268;2023-04-07T05:13:38;94475.19;;;-0.95;78.31
42247;BME280;27913;42.722;23.268;2023-04-07T05:16:04;94675.34;;;0.26;78.86
42247;BME280;27913;42.722;23.268;2023-04-07T05:18:31;94777.56;;;0.92;79.17
42247;BME280;27913;42.722;23.268;2023-04-07T05:20:56;94723.75;;;0.55;78.96
42247;BME280;27913;42.722;23.268;2023-04-07T05:23:21;94711.50;;;0.57;78.46
42247;BME280;27913;42.722;23.268;2023-04-07T05:25:47;94730.75;;;0.74;78.63
42247;BME280;27913;42.722;23.268;2023-04-07T05:28:14;94634.31;;;0.11;77.87
42247;BME280;27913;42.722;23.268;2023-04-07T05:30:39;94771.44;;;1.03;78.14
42247;BME280;27913;42.722;23.268;2023-04-07T05:33:05;94719.31;;;0.77;77.89
42247;BME280;27913;42.722;23.268;2023-04-07T05:35:30;94761.66;;;1.17;77.13
42247;BME280;27913;42.722;23.268;2023-04-07T05:37:56;94722.50;;;1.00;77.03
42247;BME280;27913;42.722;23.268;2023-04-07T05:40:21;94783.38;;;1.46;74.67
42247;BME280;27913;42.722;23.268;2023-04-07T05:42:47;94787.06;;;1.53;74.39
42247;BME280;27913;42.722;23.268;2023-04-07T05:45:13;94783.91;;;1.59;74.69
42247;BME280;27913;42.722;23.268;2023-04-07T05:47:38;94719.22;;;1.18;73.85
42247;BME280;27913;42.722;23.268;2023-04-07T05:50:06;94794.25;;;1.69;74.38
42247;BME280;27913;42.722;23.268;2023-04-07T05:52:31;94570.53;;;0.41;74.07
42247;BME280;27913;42.722;23.268;2023-04-07T05:54:57;94751.56;;;1.53;75.05
42247;BME280;27913;42.722;23.268;2023-04-07T05:57:22;94769.97;;;1.60;73.81
42247;BME280;27913;42.722;23.268;2023-04-07T05:59:48;94785.25;;;1.83;73.75
42247;BME280;27913;42.722;23.268;2023-04-07T06:02:13;94780.63;;;1.97;73.78
42247;BME280;27913;42.722;23.268;2023-04-07T06:04:39;94788.00;;;1.91;73.88
42247;BME280;27913;42.722;23.268;2023-04-07T06:07:06;94736.00;;;1.73;73.72
42247;BME280;27913;42.722;23.268;2023-04-07T06:09:31;94785.78;;;2.07;72.83
42247;BME280;27913;42.722;23.268;2023-04-07T06:11:57;94792.19;;;2.02;72.93
42247;BME280;27913;42.722;23.268;2023-04-07T06:14:23;94788.41;;;1.97;72.33
42247;BME280;27913;42.722;23.268;2023-04-07T06:16:48;94770.91;;;1.99;71.96
42247;BME280;27913;42.722;23.268;2023-04-07T06:19:14;94778.00;;;2.07;71.68
42247;BME280;27913;42.722;23.268;2023-04-07T06:21:39;94782.59;;;2.13;71.35
42247;BME280;27913;42.722;23.268;2023-04-07T06:24:05;94775.78;;;2.12;71.01
42247;BME280;27913;42.722;23.268;2023-04-07T06:26:31;94723.16;;;1.81;71.39
42247;BME280;27913;42.722;23.268;2023-04-07T06:28:57;94788.97;;;2.38;71.36
42247;BME280;27913;42.722;23.268;2023-04-07T06:31:23;94765.63;;;2.38;70.93
42247;BME280;27913;42.722;23.268;2023-04-07T06:33:50;94720.63;;;2.20;70.93
42247;BME280;27913;42.722;23.268;2023-04-07T06:36:16;94761.94;;;2.69;70.10
42247;BME280;27913;42.722;23.268;2023-04-07T06:38:41;94733.72;;;2.56;58.88
42247;BME280;27913;42.722;23.268;2023-04-07T06:41:07;94792.19;;;3.17;58.16
42247;BME280;27913;42.722;23.268;2023-04-07T06:43:36;94775.28;;;3.31;54.83
42247;BME280;27913;42.722;23.268;2023-04-07T06:46:01;94680.34;;;2.72;53.06
42247;BME280;27913;42.722;23.268;2023-04-07T06:48:27;94783.25;;;3.47;52.95
42247;BME280;27913;42.722;23.268;2023-04-07T06:50:52;94781.16;;;3.51;52.43
42247;BME280;27913;42.722;23.268;2023-04-07T06:53:18;94743.63;;;3.17;51.94
42247;BME280;27913;42.722;23.268;2023-04-07T06:55:43;94797.66;;;3.60;52.03
42247;BME280;27913;42.722;23.268;2023-04-07T06:58:09;94788.00;;;3.70;51.66
42247;BME280;27913;42.722;23.268;2023-04-07T07:00:35;94703.53;;;3.20;50.85
42247;BME280;27913;42.722;23.268;2023-04-07T07:03:01;94796.53;;;3.81;50.75
42247;BME280;27913;42.722;23.268;2023-04-07T07:05:26;94741.94;;;3.44;50.71
42247;BME280;27913;42.722;23.268;2023-04-07T07:07:53;94739.19;;;3.46;50.84
42247;BME280;27913;42.722;23.268;2023-04-07T07:10:18;94515.28;;;2.04;50.25
42247;BME280;27913;42.722;23.268;2023-04-07T07:12:50;94797.72;;;3.86;50.17
42247;BME280;27913;42.722;23.268;2023-04-07T07:15:16;94688.75;;;3.02;49.94
42247;BME280;27913;42.722;23.268;2023-04-07T07:17:42;94626.97;;;2.59;50.28
42247;BME280;27913;42.722;23.268;2023-04-07T07:20:08;94802.31;;;3.93;50.22
42247;BME280;27913;42.722;23.268;2023-04-07T07:22:34;94631.50;;;2.94;49.47
42247;BME280;27913;42.722;23.268;2023-04-07T07:25:00;94767.78;;;3.64;49.56
42247;BME280;27913;42.722;23.268;2023-04-07T07:27:25;94804.66;;;4.04;50.00
42247;BME280;27913;42.722;23.268;2023-04-07T07:29:51;94545.31;;;2.35;49.07
42247;BME280;27913;42.722;23.268;2023-04-07T07:32:16;94819.69;;;4.10;48.85
42247;BME280;27913;42.722;23.268;2023-04-07T07:34:42;94815.38;;;4.01;48.52
42247;BME280;27913;42.722;23.268;2023-04-07T07:37:07;94745.41;;;3.71;48.17
42247;BME280;27913;42.722;23.268;2023-04-07T07:39:33;94754.16;;;3.89;48.29
42247;BME280;27913;42.722;23.268;2023-04-07T07:41:58;94822.66;;;4.34;48.65
42247;BME280;27913;42.722;23.268;2023-04-07T07:44:24;94775.69;;;3.99;48.19
42247;BME280;27913;42.722;23.268;2023-04-07T07:46:50;94775.41;;;4.02;47.89
42247;BME280;27913;42.722;23.268;2023-04-07T07:49:15;94669.44;;;3.41;48.33
42247;BME280;27913;42.722;23.268;2023-04-07T07:51:41;94822.06;;;4.22;47.82
42247;BME280;27913;42.722;23.268;2023-04-07T07:54:07;94811.00;;;4.20;48.09
42247;BME280;27913;42.722;23.268;2023-04-07T07:56:33;94814.41;;;4.20;48.34
42247;BME280;27913;42.722;23.268;2023-04-07T07:58:59;94789.34;;;4.19;48.64
42247;BME280;27913;42.722;23.268;2023-04-07T08:01:25;94746.69;;;3.94;48.07
42247;BME280;27913;42.722;23.268;2023-04-07T08:03:50;94599.06;;;2.80;47.74
42247;BME280;27913;42.722;23.268;2023-04-07T08:06:16;94822.06;;;4.22;48.17
42247;BME280;27913;42.722;23.268;2023-04-07T08:08:42;94812.25;;;4.16;48.03
42247;BME280;27913;42.722;23.268;2023-04-07T08:11:07;94827.09;;;4.23;47.89
42247;BME280;27913;42.722;23.268;2023-04-07T08:13:32;94755.59;;;3.83;48.41
42247;BME280;27913;42.722;23.268;2023-04-07T08:15:58;94813.34;;;4.31;49.23
42247;BME280;27913;42.722;23.268;2023-04-07T08:18:23;94742.63;;;3.91;48.76
42247;BME280;27913;42.722;23.268;2023-04-07T08:20:49;94827.59;;;4.45;48.79
42247;BME280;27913;42.722;23.268;2023-04-07T08:23:16;94718.06;;;3.67;48.85
42247;BME280;27913;42.722;23.268;2023-04-07T08:25:41;94765.34;;;4.07;48.61
42247;BME280;27913;42.722;23.268;2023-04-07T08:28:07;94587.81;;;3.07;48.57
42247;BME280;27913;42.722;23.268;2023-04-07T08:30:33;94817.16;;;4.72;48.66
42247;BME280;27913;42.722;23.268;2023-04-07T08:32:58;94646.09;;;3.49;47.29
42247;BME280;27913;42.722;23.268;2023-04-07T08:35:23;94815.59;;;4.53;47.35
42247;BME280;27913;42.722;23.268;2023-04-07T08:37:49;94824.59;;;4.58;47.86
42247;BME280;27913;42.722;23.268;2023-04-07T08:40:15;94821.06;;;4.76;48.05
42247;BME280;27913;42.722;23.268;2023-04-07T08:42:46;94817.03;;;4.82;47.57
42247;BME280;27913;42.722;23.268;2023-04-07T08:45:13;94772.97;;;4.62;46.80
42247;BME280;27913;42.722;23.268;2023-04-07T08:47:41;94726.16;;;4.09;46.66
42247;BME280;27913;42.722;23.268;2023-04-07T08:50:09;94759.78;;;4.29;47.25
42247;BME280;27913;42.722;23.268;2023-04-07T08:52:49;94830.19;;;4.72;47.36
42247;BME280;27913;42.722;23.268;2023-04-07T08:55:15;94791.31;;;4.52;47.51
42247;BME280;27913;42.722;23.268;2023-04-07T08:57:41;94825.16;;;4.79;47.61
42247;BME280;27913;42.722;23.268;2023-04-07T09:00:07;94812.44;;;4.67;47.33
42247;BME280;27913;42.722;23.268;2023-04-07T09:02:35;94747.69;;;4.19;47.57
42247;BME280;27913;42.722;23.268;2023-04-07T09:05:05;94835.25;;;4.74;47.67
42247;BME280;27913;42.722;23.268;2023-04-07T09:07:32;94778.38;;;4.34;47.33
42247;BME280;27913;42.722;23.268;2023-04-07T09:09:58;94839.66;;;4.81;47.15
42247;BME280;27913;42.722;23.268;2023-04-07T09:12:28;94834.34;;;4.91;47.31
42247;BME280;27913;42.722;23.268;2023-04-07T09:14:54;94825.13;;;5.05;47.73
42247;BME280;27913;42.722;23.268;2023-04-07T09:17:20;94829.63;;;5.30;47.23
42247;BME280;27913;42.722;23.268;2023-04-07T09:19:47;94820.66;;;5.32;47.30
42247;BME280;27913;42.722;23.268;2023-04-07T09:22:12;94772.81;;;4.99;46.75
42247;BME280;27913;42.722;23.268;2023-04-07T09:24:42;94761.56;;;4.98;47.57
42247;BME280;27913;42.722;23.268;2023-04-07T09:27:14;94757.97;;;4.99;46.38
42247;BME280;27913;42.722;23.268;2023-04-07T09:29:42;94801.38;;;5.17;46.19
42247;BME280;27913;42.722;23.268;2023-04-07T09:32:08;94724.22;;;4.81;46.77
42247;BME280;27913;42.722;23.268;2023-04-07T09:34:39;94824.78;;;5.52;46.69
42247;BME280;27913;42.722;23.268;2023-04-07T09:37:06;94821.66;;;5.40;46.64
42247;BME280;27913;42.722;23.268;2023-04-07T09:39:32;94690.75;;;4.59;46.45
42247;BME280;27913;42.722;23.268;2023-04-07T09:41:58;94830.13;;;5.42;45.89
42247;BME280;27913;42.722;23.268;2023-04-07T09:44:24;94749.25;;;4.74;46.49
42247;BME280;27913;42.722;23.268;2023-04-07T09:49:17;94768.34;;;4.82;47.89
42247;BME280;27913;42.722;23.268;2023-04-07T09:52:01;94744.38;;;4.70;48.86
42247;BME280;27913;42.722;23.268;2023-04-07T09:54:37;94701.25;;;4.41;49.13
42247;BME280;27913;42.722;23.268;2023-04-07T09:57:04;94773.31;;;5.02;49.05
42247;BME280;27913;42.722;23.268;2023-04-07T09:59:31;94854.75;;;5.39;47.49
42247;BME280;27913;42.722;23.268;2023-04-07T10:01:57;94695.41;;;4.39;48.20
42247;BME280;27913;42.722;23.268;2023-04-07T10:04:24;94783.53;;;4.95;48.05
42247;BME280;27913;42.722;23.268;2023-04-07T10:06:51;94754.47;;;4.74;48.83
42247;BME280;27913;42.722;23.268;2023-04-07T10:09:17;94824.59;;;5.45;48.98
42247;BME280;27913;42.722;23.268;2023-04-07T10:11:43;94833.09;;;5.47;48.00
42247;BME280;27913;42.722;23.268;2023-04-07T10:14:10;94779.72;;;5.16;47.70
42247;BME280;27913;42.722;23.268;2023-04-07T10:16:41;94836.38;;;5.58;47.55
42247;BME280;27913;42.722;23.268;2023-04-07T10:19:07;94774.63;;;5.15;48.69
42247;BME280;27913;42.722;23.268;2023-04-07T10:21:35;94836.00;;;5.36;51.75
42247;BME280;27913;42.722;23.268;2023-04-07T10:26:46;94780.63;;;4.99;50.58
42247;BME280;27913;42.722;23.268;2023-04-07T10:29:15;94826.69;;;5.33;51.16
42247;BME280;27913;42.722;23.268;2023-04-07T10:31:42;94835.31;;;5.25;50.90
42247;BME280;27913;42.722;23.268;2023-04-07T10:34:08;94837.47;;;5.38;50.97
42247;BME280;27913;42.722;23.268;2023-04-07T10:36:33;94775.94;;;5.02;51.07
42247;BME280;27913;42.722;23.268;2023-04-07T10:41:31;94733.66;;;4.82;50.14
42247;BME280;27913;42.722;23.268;2023-04-07T10:44:01;94786.22;;;5.12;50.34
42247;BME280;27913;42.722;23.268;2023-04-07T10:49:16;94866.97;;;5.39;51.99
42247;BME280;27913;42.722;23.268;2023-04-07T10:51:43;94801.16;;;4.93;52.66
42247;BME280;27913;42.722;23.268;2023-04-07T10:54:15;94730.66;;;4.60;52.96
42247;BME280;27913;42.722;23.268;2023-04-07T10:59:27;94795.97;;;5.10;51.33
42247;BME280;27913;42.722;23.268;2023-04-07T11:04:45;94857.56;;;5.63;52.42
42247;BME280;27913;42.722;23.268;2023-04-07T11:07:12;94857.75;;;5.70;52.02
42247;BME280;27913;42.722;23.268;2023-04-07T11:09:39;94791.16;;;5.32;51.79
42247;BME280;27913;42.722;23.268;2023-04-07T11:12:05;94772.00;;;5.06;51.61
42247;BME280;27913;42.722;23.268;2023-04-07T11:14:31;94840.91;;;5.55;52.48
42247;BME280;27913;42.722;23.268;2023-04-07T11:16:58;94857.59;;;5.71;52.78
42247;BME280;27913;42.722;23.268;2023-04-07T11:19:25;94755.41;;;5.07;51.90
42247;BME280;27913;42.722;23.268;2023-04-07T11:22:16;94642.31;;;4.32;52.50
42247;BME280;27913;42.722;23.268;2023-04-07T11:24:45;94694.38;;;4.75;51.97
42247;BME280;27913;42.722;23.268;2023-04-07T11:27:14;94862.34;;;5.92;51.68
42247;BME280;27913;42.722;23.268;2023-04-07T11:29:40;94852.91;;;6.00;50.44
42247;BME280;27913;42.722;23.268;2023-04-07T11:32:06;94730.19;;;5.16;50.46
42247;BME280;27913;42.722;23.268;2023-04-07T11:34:35;94787.41;;;5.43;52.04
42247;BME280;27913;42.722;23.268;2023-04-07T11:37:19;94856.13;;;5.77;53.23
42247;BME280;27913;42.722;23.268;2023-04-07T11:39:56;94881.53;;;5.58;53.66
42247;BME280;27913;42.722;23.268;2023-04-07T11:42:35;94825.72;;;5.34;53.38
42247;BME280;27913;42.722;23.268;2023-04-07T11:45:01;94741.84;;;4.95;54.08
42247;BME280;27913;42.722;23.268;2023-04-07T11:47:34;94776.97;;;5.35;52.96
42247;BME280;27913;42.722;23.268;2023-04-07T11:50:00;94818.44;;;5.54;53.29
42247;BME280;27913;42.722;23.268;2023-04-07T11:52:25;94734.06;;;5.04;53.37
42247;BME280;27913;42.722;23.268;2023-04-07T11:54:51;94873.28;;;5.88;52.57
42247;BME280;27913;42.722;23.268;2023-04-07T11:57:27;94689.63;;;4.62;52.69
42247;BME280;27913;42.722;23.268;2023-04-07T12:00:07;94861.88;;;5.89;52.81
42247;BME280;27913;42.722;23.268;2023-04-07T12:02:33;94856.00;;;5.87;52.99
42247;BME280;27913;42.722;23.268;2023-04-07T12:04:58;94859.16;;;6.07;52.46
42247;BME280;27913;42.722;23.268;2023-04-07T12:07:24;94612.59;;;4.51;52.18
42247;BME280;27913;42.722;23.268;2023-04-07T12:09:52;94861.22;;;6.03;53.17
42247;BME280;27913;42.722;23.268;2023-04-07T12:12:24;94857.03;;;6.11;53.59
42247;BME280;27913;42.722;23.268;2023-04-07T12:14:51;94869.25;;;6.10;52.83
42247;BME280;27913;42.722;23.268;2023-04-07T12:17:21;94795.63;;;5.73;51.80
42247;BME280;27913;42.722;23.268;2023-04-07T12:19:46;94863.41;;;6.16;52.25
42247;BME280;27913;42.722;23.268;2023-04-07T12:22:12;94732.47;;;5.36;52.59
42247;BME280;27913;42.722;23.268;2023-04-07T12:24:37;94859.16;;;6.07;52.04
42247;BME280;27913;42.722;23.268;2023-04-07T12:27:03;94677.81;;;4.85;52.07
42247;BME280;27913;42.722;23.268;2023-04-07T12:29:29;94868.91;;;5.97;52.38
42247;BME280;27913;42.722;23.268;2023-04-07T12:31:55;94716.16;;;5.17;52.60
42247;BME280;27913;42.722;23.268;2023-04-07T12:34:21;94859.81;;;6.09;52.41
42247;BME280;27913;42.722;23.268;2023-04-07T12:36:46;94819.09;;;5.73;52.53
42247;BME280;27913;42.722;23.268;2023-04-07T12:39:12;94785.63;;;5.52;53.69
42247;BME280;27913;42.722;23.268;2023-04-07T12:41:38;94846.09;;;6.07;53.60
42247;BME280;27913;42.722;23.268;2023-04-07T12:44:04;94688.94;;;5.03;52.93
42247;BME280;27913;42.722;23.268;2023-04-07T12:46:30;94865.47;;;6.04;53.57
42247;BME280;27913;42.722;23.268;2023-04-07T12:48:55;94856.84;;;6.04;52.98
42247;BME280;27913;42.722;23.268;2023-04-07T12:51:21;94671.78;;;4.84;53.15
42247;BME280;27913;42.722;23.268;2023-04-07T12:53:46;94781.09;;;5.54;53.51
42247;BME280;27913;42.722;23.268;2023-04-07T12:56:12;94795.28;;;5.51;53.99
42247;BME280;27913;42.722;23.268;2023-04-07T12:58:39;94855.19;;;5.95;54.24
42247;BME280;27913;42.722;23.268;2023-04-07T13:01:04;94855.84;;;5.97;53.84
42247;BME280;27913;42.722;23.268;2023-04-07T13:03:31;94637.88;;;4.67;53.65
42247;BME280;27913;42.722;23.268;2023-04-07T13:05:56;94863.72;;;6.05;52.89
42247;BME280;27913;42.722;23.268;2023-04-07T13:08:25;94817.66;;;5.71;53.20
42247;BME280;27913;42.722;23.268;2023-04-07T13:10:51;94663.44;;;4.64;52.93
42247;BME280;27913;42.722;23.268;2023-04-07T13:13:17;94865.63;;;5.86;54.22
42247;BME280;27913;42.722;23.268;2023-04-07T13:15:42;94868.06;;;5.88;53.98
42247;BME280;27913;42.722;23.268;2023-04-07T13:18:07;94869.06;;;5.95;54.81
42247;BME280;27913;42.722;23.268;2023-04-07T13:20:33;94883.72;;;5.88;54.19
42247;BME280;27913;42.722;23.268;2023-04-07T13:22:59;94873.28;;;5.79;55.34
42247;BME280;27913;42.722;23.268;2023-04-07T13:25:24;94887.66;;;5.92;54.80
42247;BME280;27913;42.722;23.268;2023-04-07T13:27:49;94864.47;;;5.72;55.20